Time,TemperatureF,DewpointF,PressureIn,WindDirection,WindDirectionDegrees,WindSpeedMPH,WindSpeedGustMPH,Humidity,HourlyPrecipIn,Conditions,Clouds,dailyrainin,SolarRadiationWatts/m^2,SoftwareType,DateUTC
2013-08-22 00:12:00,53.0,43.0,-100.00,NE,51,1.0,6.0,69,0.00,,,0.03,0.000000,,2013-08-22 06:12:00,
2013-08-22 00:22:00,53.0,43.0,-100.00,NE,51,1.0,6.0,69,0.00,,,0.03,0.000000,,2013-08-22 06:22:00,
2013-08-22 00:32:00,53.0,43.0,-100.00,NE,51,1.0,6.0,69,0.00,,,0.03,0.000000,,2013-08-22 06:32:00,
2013-08-22 00:42:00,53.0,43.0,-100.00,NE,51,1.0,6.0,69,0.00,,,0.03,0.000000,,2013-08-22 06:42:00,
2013-08-22 01:11:00,53.0,42.0,-100.00,NW,320,1.0,5.0,65,0.00,,,0.03,0.000000,,2013-08-22 07:11:00,
2013-08-22 01:21:00,53.0,42.0,-100.00,NW,320,1.0,5.0,65,0.00,,,0.03,0.000000,,2013-08-22 07:21:00,
2013-08-22 01:32:00,53.0,42.0,-100.00,NW,320,1.0,5.0,65,0.00,,,0.03,0.000000,,2013-08-22 07:32:00,
2013-08-22 01:42:00,53.0,42.0,-100.00,NW,320,1.0,5.0,65,0.00,,,0.03,0.000000,,2013-08-22 07:42:00,
2013-08-22 02:12:00,52.0,44.0,-100.00,WNW,285,0.0,3.0,73,0.00,,,0.03,0.000000,,2013-08-22 08:12:00,
2013-08-22 02:22:00,52.0,44.0,-100.00,WNW,285,0.0,3.0,73,0.00,,,0.03,0.000000,,2013-08-22 08:22:00,
2013-08-22 02:33:00,52.0,44.0,-100.00,WNW,285,0.0,3.0,73,0.00,,,0.03,0.000000,,2013-08-22 08:33:00,
2013-08-22 02:43:00,52.0,44.0,-100.00,WNW,285,0.0,3.0,73,0.00,,,0.03,0.000000,,2013-08-22 08:43:00,
2013-08-22 03:11:00,51.0,42.0,-100.00,ESE,102,0.0,4.0,70,0.00,,,-99.99,0.000000,,2013-08-22 09:11:00,
2013-08-22 03:22:00,51.0,42.0,-100.00,ESE,102,0.0,4.0,70,0.00,,,-99.99,0.000000,,2013-08-22 09:22:00,
2013-08-22 03:33:00,51.0,42.0,-100.00,ESE,102,0.0,4.0,70,0.00,,,-99.99,0.000000,,2013-08-22 09:33:00,
2013-08-22 03:43:00,51.0,42.0,-100.00,ESE,102,0.0,4.0,70,0.00,,,-99.99,0.000000,,2013-08-22 09:43:00,
2013-08-22 04:12:00,51.0,42.0,-100.00,NNW,335,0.0,6.0,70,0.00,,,0.03,0.000000,,2013-08-22 10:12:00,
2013-08-22 04:22:00,51.0,42.0,-100.00,NNW,335,0.0,6.0,70,0.00,,,0.03,0.000000,,2013-08-22 10:22:00,
2013-08-22 04:32:00,51.0,42.0,-100.00,NNW,335,0.0,6.0,70,0.00,,,0.03,0.000000,,2013-08-22 10:32:00,
2013-08-22 04:42:00,51.0,42.0,-100.00,NNW,335,0.0,6.0,70,0.00,,,0.03,0.000000,,2013-08-22 10:42:00,
2013-08-22 06:32:00,50.0,45.0,-100.00,North,359,0.0,6.0,83,0.00,,,0.03,0.000000,,2013-08-22 12:32:00,
2013-08-22 06:42:00,50.0,45.0,-100.00,North,359,0.0,6.0,83,0.00,,,0.03,0.000000,,2013-08-22 12:42:00,
2013-08-22 07:12:00,48.0,42.0,-100.00,SSW,199,2.0,5.0,81,0.00,,,0.03,0.000000,,2013-08-22 13:12:00,
2013-08-22 07:22:00,48.0,42.0,-100.00,SSW,199,2.0,5.0,81,0.00,,,0.03,0.000000,,2013-08-22 13:22:00,
2013-08-22 07:32:00,48.0,42.0,-100.00,SSW,199,2.0,5.0,81,0.00,,,0.03,0.000000,,2013-08-22 13:32:00,
2013-08-22 07:42:00,48.0,42.0,-100.00,SSW,199,2.0,5.0,81,0.00,,,0.03,0.000000,,2013-08-22 13:42:00,
2013-08-22 08:11:00,52.0,44.0,-100.00,SW,218,6.0,9.0,75,0.00,,,0.03,86.000000,,2013-08-22 14:11:00,
2013-08-22 08:22:00,52.0,44.0,-100.00,SW,218,6.0,9.0,75,0.00,,,0.03,86.000000,,2013-08-22 14:22:00,
2013-08-22 08:33:00,52.0,44.0,-100.00,SW,218,6.0,9.0,75,0.00,,,0.03,86.000000,,2013-08-22 14:33:00,
2013-08-22 08:42:00,52.0,44.0,-100.00,SW,218,6.0,9.0,75,0.00,,,0.03,86.000000,,2013-08-22 14:42:00,
2013-08-22 10:43:00,66.0,47.0,-100.00,NNE,29,1.0,6.0,51,-99.99,,,0.03,595.000000,,2013-08-22 16:43:00,
2013-08-22 11:42:00,68.0,42.0,-100.00,ENE,63,5.0,10.0,39,0.00,,,0.03,829.000000,,2013-08-22 17:42:00,
2013-08-22 12:21:00,74.0,44.0,-100.00,ENE,60,5.0,12.0,34,0.00,,,-99.99,1007.000000,,2013-08-22 18:21:00,
2013-08-22 12:32:00,74.0,44.0,-100.00,ENE,60,5.0,12.0,34,0.00,,,-99.99,1007.000000,,2013-08-22 18:32:00,
2013-08-22 12:43:00,74.0,44.0,-100.00,ENE,60,5.0,12.0,34,0.00,,,-99.99,1007.000000,,2013-08-22 18:43:00,
2013-08-22 13:22:00,75.0,44.0,-100.00,NNE,26,4.0,13.0,33,-99.99,,,0.03,1118.000000,,2013-08-22 19:22:00,
2013-08-22 13:32:00,75.0,44.0,-100.00,NNE,26,4.0,13.0,33,-99.99,,,0.03,1118.000000,,2013-08-22 19:32:00,
2013-08-22 13:42:00,75.0,44.0,-100.00,NNE,26,4.0,13.0,33,-99.99,,,0.03,1118.000000,,2013-08-22 19:42:00,
2013-08-22 14:12:00,72.0,41.0,-100.00,ENE,58,8.0,14.0,33,0.00,,,0.03,838.000000,,2013-08-22 20:12:00,
2013-08-22 14:23:00,72.0,41.0,-100.00,ENE,58,8.0,14.0,33,0.00,,,0.03,838.000000,,2013-08-22 20:23:00,
2013-08-22 14:32:00,72.0,41.0,-100.00,ENE,58,8.0,14.0,33,0.00,,,0.03,838.000000,,2013-08-22 20:32:00,
2013-08-22 14:42:00,72.0,41.0,-100.00,ENE,58,8.0,14.0,33,0.00,,,0.03,838.000000,,2013-08-22 20:42:00,
2013-08-22 15:13:00,77.0,41.0,-100.00,NE,54,9.0,16.0,28,0.00,,,0.03,1019.000000,,2013-08-22 21:13:00,
2013-08-22 15:22:00,77.0,41.0,-100.00,NE,54,9.0,16.0,28,0.00,,,0.03,1019.000000,,2013-08-22 21:22:00,
2013-08-22 15:34:00,77.0,41.0,-100.00,NE,54,9.0,16.0,28,0.00,,,0.03,1019.000000,,2013-08-22 21:34:00,
2013-08-22 15:44:00,77.0,41.0,-100.00,NE,54,9.0,16.0,28,0.00,,,0.03,1019.000000,,2013-08-22 21:44:00,
2013-08-22 16:24:00,65.0,51.0,-100.00,NW,310,8.0,17.0,60,0.01,,,0.03,328.000000,,2013-08-22 22:24:00,
2013-08-22 16:34:00,65.0,51.0,-100.00,NW,310,8.0,17.0,60,0.01,,,0.03,328.000000,,2013-08-22 22:34:00,
2013-08-22 19:11:00,60.0,49.0,-100.00,SSW,199,7.0,23.0,68,0.01,,,0.26,112.000000,,2013-08-23 01:11:00,
2013-08-22 19:21:00,60.0,49.0,-100.00,SSW,199,7.0,23.0,68,0.01,,,0.26,112.000000,,2013-08-23 01:21:00,
2013-08-22 19:33:00,60.0,49.0,-100.00,SSW,199,7.0,23.0,68,0.01,,,0.26,112.000000,,2013-08-23 01:33:00,
2013-08-22 19:41:00,60.0,49.0,-100.00,SSW,199,7.0,23.0,68,0.01,,,0.26,112.000000,,2013-08-23 01:41:00,
2013-08-22 20:11:00,59.0,42.0,-100.00,WSW,255,5.0,10.0,54,0.00,,,0.26,31.000000,,2013-08-23 02:11:00,
2013-08-22 20:22:00,59.0,42.0,-100.00,WSW,255,5.0,10.0,54,0.00,,,0.26,31.000000,,2013-08-23 02:22:00,
2013-08-22 20:32:00,59.0,42.0,-100.00,WSW,255,5.0,10.0,54,0.00,,,0.26,31.000000,,2013-08-23 02:32:00,
2013-08-22 20:42:00,59.0,42.0,-100.00,WSW,255,5.0,10.0,54,0.00,,,0.26,31.000000,,2013-08-23 02:42:00,
2013-08-22 21:22:00,57.0,43.0,-100.00,SW,224,6.0,9.0,60,0.00,,,0.26,0.000000,,2013-08-23 03:22:00,
2013-08-22 21:34:00,57.0,43.0,-100.00,SW,224,6.0,9.0,60,0.00,,,0.26,0.000000,,2013-08-23 03:34:00,
2013-08-22 21:44:00,57.0,43.0,-100.00,SW,224,6.0,9.0,60,0.00,,,0.26,0.000000,,2013-08-23 03:44:00,
2013-08-22 22:24:00,57.0,47.0,-100.00,SSW,212,5.0,11.0,70,0.00,,,0.26,0.000000,,2013-08-23 04:24:00,
2013-08-22 22:34:00,57.0,47.0,-100.00,SSW,212,5.0,11.0,70,0.00,,,0.26,0.000000,,2013-08-23 04:34:00,
2013-08-22 22:43:00,57.0,47.0,-100.00,SSW,212,5.0,11.0,70,0.00,,,0.26,0.000000,,2013-08-23 04:43:00,
2013-08-22 23:13:00,56.0,47.0,-100.00,WSW,240,3.0,8.0,72,0.00,,,0.26,0.000000,,2013-08-23 05:13:00,
2013-08-22 23:22:00,56.0,47.0,-100.00,WSW,240,3.0,8.0,72,0.00,,,0.26,0.000000,,2013-08-23 05:22:00,
2013-08-22 23:34:00,56.0,47.0,-100.00,WSW,240,3.0,8.0,72,0.00,,,0.26,0.000000,,2013-08-23 05:34:00,
2013-08-22 23:42:00,56.0,47.0,-100.00,WSW,240,3.0,8.0,72,0.00,,,0.26,0.000000,,2013-08-23 05:42:00,